sensor_id;sensor_type;location;lat;lon;timestamp;temperature;humidity
18339;DHT22;9295;44.484;11.240;2022-08-21T00:01:54;22.10;99.90
18339;DHT22;9295;44.484;11.240;2022-08-21T00:04:23;22.10;99.90
18339;DHT22;9295;44.484;11.240;2022-08-21T00:06:56;22.10;99.90
18339;DHT22;9295;44.484;11.240;2022-08-21T00:09:25;22.10;99.90
18339;DHT22;9295;44.484;11.240;2022-08-21T00:11:54;22.20;99.90
18339;DHT22;9295;44.484;11.240;2022-08-21T00:14:24;22.20;99.90
18339;DHT22;9295;44.484;11.240;2022-08-21T00:16:58;22.10;99.90
18339;DHT22;9295;44.484;11.240;2022-08-21T00:19:27;22.10;99.90
18339;DHT22;9295;44.484;11.240;2022-08-21T00:21:56;22.10;99.90
18339;DHT22;9295;44.484;11.240;2022-08-21T00:24:25;22.10;99.90
18339;DHT22;9295;44.484;11.240;2022-08-21T00:26:53;22.00;99.90
18339;DHT22;9295;44.484;11.240;2022-08-21T00:29:22;21.90;99.90
18339;DHT22;9295;44.484;11.240;2022-08-21T00:31:52;21.90;99.90
18339;DHT22;9295;44.484;11.240;2022-08-21T00:34:20;21.90;99.90
18339;DHT22;9295;44.484;11.240;2022-08-21T00:36:49;21.90;99.90
18339;DHT22;9295;44.484;11.240;2022-08-21T00:39:18;21.90;99.90
18339;DHT22;9295;44.484;11.240;2022-08-21T00:41:46;21.80;99.90
18339;DHT22;9295;44.484;11.240;2022-08-21T00:44:15;21.70;99.90
18339;DHT22;9295;44.484;11.240;2022-08-21T00:46:44;21.70;99.90
18339;DHT22;9295;44.484;11.240;2022-08-21T00:49:14;21.70;99.90
18339;DHT22;9295;44.484;11.240;2022-08-21T00:51:47;21.70;99.90
18339;DHT22;9295;44.484;11.240;2022-08-21T00:54:18;21.60;99.90
18339;DHT22;9295;44.484;11.240;2022-08-21T00:56:53;21.60;99.90
18339;DHT22;9295;44.484;11.240;2022-08-21T00:59:26;21.60;99.90
18339;DHT22;9295;44.484;11.240;2022-08-21T01:01:58;21.60;99.90
18339;DHT22;9295;44.484;11.240;2022-08-21T01:04:28;21.60;99.90
18339;DHT22;9295;44.484;11.240;2022-08-21T01:06:57;21.60;99.90
18339;DHT22;9295;44.484;11.240;2022-08-21T01:09:27;21.50;99.90
18339;DHT22;9295;44.484;11.240;2022-08-21T01:11:55;21.50;99.90
18339;DHT22;9295;44.484;11.240;2022-08-21T01:14:24;21.50;99.90
18339;DHT22;9295;44.484;11.240;2022-08-21T01:16:53;21.40;99.90
18339;DHT22;9295;44.484;11.240;2022-08-21T01:19:22;21.40;99.90
18339;DHT22;9295;44.484;11.240;2022-08-21T01:21:53;21.30;99.90
18339;DHT22;9295;44.484;11.240;2022-08-21T01:24:22;21.30;99.90
18339;DHT22;9295;44.484;11.240;2022-08-21T01:26:51;21.20;99.90
18339;DHT22;9295;44.484;11.240;2022-08-21T01:29:27;21.20;99.90
18339;DHT22;9295;44.484;11.240;2022-08-21T01:31:58;21.20;99.90
18339;DHT22;9295;44.484;11.240;2022-08-21T01:34:26;21.10;99.90
18339;DHT22;9295;44.484;11.240;2022-08-21T01:36:57;21.10;99.90
18339;DHT22;9295;44.484;11.240;2022-08-21T01:39:25;21.10;99.90
18339;DHT22;9295;44.484;11.240;2022-08-21T01:41:57;21.10;99.90
18339;DHT22;9295;44.484;11.240;2022-08-21T01:44:25;21.00;99.90
18339;DHT22;9295;44.484;11.240;2022-08-21T01:46:55;21.00;99.90
18339;DHT22;9295;44.484;11.240;2022-08-21T01:49:25;21.00;99.90
18339;DHT22;9295;44.484;11.240;2022-08-21T01:51:54;21.00;99.90
18339;DHT22;9295;44.484;11.240;2022-08-21T01:54:23;21.00;99.90
18339;DHT22;9295;44.484;11.240;2022-08-21T01:56:53;21.00;99.90
18339;DHT22;9295;44.484;11.240;2022-08-21T01:59:22;21.00;99.90
18339;DHT22;9295;44.484;11.240;2022-08-21T02:01:51;21.00;99.90
18339;DHT22;9295;44.484;11.240;2022-08-21T02:04:21;20.90;99.90
18339;DHT22;9295;44.484;11.240;2022-08-21T02:06:49;21.00;99.90
18339;DHT22;9295;44.484;11.240;2022-08-21T02:09:18;21.00;99.90
18339;DHT22;9295;44.484;11.240;2022-08-21T02:11:49;20.90;99.90
18339;DHT22;9295;44.484;11.240;2022-08-21T02:14:18;20.90;99.90
18339;DHT22;9295;44.484;11.240;2022-08-21T02:16:59;21.00;99.90
18339;DHT22;9295;44.484;11.240;2022-08-21T02:19:34;20.90;99.90
18339;DHT22;9295;44.484;11.240;2022-08-21T02:22:07;20.80;99.90
18339;DHT22;9295;44.484;11.240;2022-08-21T02:24:37;20.80;99.90
18339;DHT22;9295;44.484;11.240;2022-08-21T02:27:23;20.80;99.90
18339;DHT22;9295;44.484;11.240;2022-08-21T02:29:55;20.80;99.90
18339;DHT22;9295;44.484;11.240;2022-08-21T02:32:24;20.80;99.90
18339;DHT22;9295;44.484;11.240;2022-08-21T02:34:53;20.70;99.90
18339;DHT22;9295;44.484;11.240;2022-08-21T02:37:21;20.70;99.90
18339;DHT22;9295;44.484;11.240;2022-08-21T02:39:50;20.60;99.90
18339;DHT22;9295;44.484;11.240;2022-08-21T02:42:19;20.60;99.90
18339;DHT22;9295;44.484;11.240;2022-08-21T02:44:49;20.60;99.90
18339;DHT22;9295;44.484;11.240;2022-08-21T02:47:18;20.60;99.90
18339;DHT22;9295;44.484;11.240;2022-08-21T02:49:46;20.60;99.90
18339;DHT22;9295;44.484;11.240;2022-08-21T02:52:15;20.60;99.90
18339;DHT22;9295;44.484;11.240;2022-08-21T02:54:43;20.60;99.90
18339;DHT22;9295;44.484;11.240;2022-08-21T02:57:12;20.60;99.90
18339;DHT22;9295;44.484;11.240;2022-08-21T02:59:40;20.60;99.90
18339;DHT22;9295;44.484;11.240;2022-08-21T03:02:10;20.60;99.90
18339;DHT22;9295;44.484;11.240;2022-08-21T03:04:39;20.50;99.90
18339;DHT22;9295;44.484;11.240;2022-08-21T03:07:12;20.50;99.90
18339;DHT22;9295;44.484;11.240;2022-08-21T03:09:42;20.50;99.90
18339;DHT22;9295;44.484;11.240;2022-08-21T03:12:21;20.40;99.90
18339;DHT22;9295;44.484;11.240;2022-08-21T03:14:50;20.40;99.90
18339;DHT22;9295;44.484;11.240;2022-08-21T03:17:21;20.40;99.90
18339;DHT22;9295;44.484;11.240;2022-08-21T03:19:57;20.30;99.90
18339;DHT22;9295;44.484;11.240;2022-08-21T03:22:26;20.30;99.90
18339;DHT22;9295;44.484;11.240;2022-08-21T03:24:57;20.30;99.90
18339;DHT22;9295;44.484;11.240;2022-08-21T03:27:26;20.30;99.90
18339;DHT22;9295;44.484;11.240;2022-08-21T03:29:56;20.40;99.90
18339;DHT22;9295;44.484;11.240;2022-08-21T03:32:29;20.30;99.90
18339;DHT22;9295;44.484;11.240;2022-08-21T03:34:58;20.30;99.90
18339;DHT22;9295;44.484;11.240;2022-08-21T03:37:27;20.30;99.90
18339;DHT22;9295;44.484;11.240;2022-08-21T03:39:56;20.30;99.90
18339;DHT22;9295;44.484;11.240;2022-08-21T03:42:24;20.20;99.90
18339;DHT22;9295;44.484;11.240;2022-08-21T03:44:54;20.20;99.90
18339;DHT22;9295;44.484;11.240;2022-08-21T03:47:22;20.20;99.90
18339;DHT22;9295;44.484;11.240;2022-08-21T03:49:53;20.20;99.90
18339;DHT22;9295;44.484;11.240;2022-08-21T03:52:22;20.10;99.90
18339;DHT22;9295;44.484;11.240;2022-08-21T03:54:51;20.10;99.90
18339;DHT22;9295;44.484;11.240;2022-08-21T03:57:19;20.10;99.90
18339;DHT22;9295;44.484;11.240;2022-08-21T03:59:48;20.00;99.90
18339;DHT22;9295;44.484;11.240;2022-08-21T04:02:18;20.00;99.90
18339;DHT22;9295;44.484;11.240;2022-08-21T04:04:48;20.00;99.90
18339;DHT22;9295;44.484;11.240;2022-08-21T04:07:18;20.00;99.90
18339;DHT22;9295;44.484;11.240;2022-08-21T04:09:47;19.90;99.90
18339;DHT22;9295;44.484;11.240;2022-08-21T04:12:15;19.90;99.90
18339;DHT22;9295;44.484;11.240;2022-08-21T04:14:44;19.90;99.90
18339;DHT22;9295;44.484;11.240;2022-08-21T04:17:12;19.90;99.90
18339;DHT22;9295;44.484;11.240;2022-08-21T04:19:41;19.90;99.90
18339;DHT22;9295;44.484;11.240;2022-08-21T04:22:10;19.90;99.90
18339;DHT22;9295;44.484;11.240;2022-08-21T04:24:40;19.90;99.90
18339;DHT22;9295;44.484;11.240;2022-08-21T04:27:09;19.90;99.90
18339;DHT22;9295;44.484;11.240;2022-08-21T04:29:38;19.90;99.90
18339;DHT22;9295;44.484;11.240;2022-08-21T04:32:06;19.90;99.90
18339;DHT22;9295;44.484;11.240;2022-08-21T04:34:35;19.90;99.90
18339;DHT22;9295;44.484;11.240;2022-08-21T04:37:04;19.90;99.90
18339;DHT22;9295;44.484;11.240;2022-08-21T04:39:32;19.90;99.90
18339;DHT22;9295;44.484;11.240;2022-08-21T04:42:02;19.80;99.90
18339;DHT22;9295;44.484;11.240;2022-08-21T04:44:34;19.90;99.90
18339;DHT22;9295;44.484;11.240;2022-08-21T04:47:03;19.90;99.90
18339;DHT22;9295;44.484;11.240;2022-08-21T04:49:32;19.90;99.90
18339;DHT22;9295;44.484;11.240;2022-08-21T04:52:02;20.00;99.90
18339;DHT22;9295;44.484;11.240;2022-08-21T04:54:30;20.00;99.90
18339;DHT22;9295;44.484;11.240;2022-08-21T04:57:04;20.00;99.90
18339;DHT22;9295;44.484;11.240;2022-08-21T04:59:37;20.00;99.90
18339;DHT22;9295;44.484;11.240;2022-08-21T05:02:09;20.00;99.90
18339;DHT22;9295;44.484;11.240;2022-08-21T05:04:41;20.10;99.90
18339;DHT22;9295;44.484;11.240;2022-08-21T05:07:17;20.10;99.90
18339;DHT22;9295;44.484;11.240;2022-08-21T05:10:07;20.20;99.90
18339;DHT22;9295;44.484;11.240;2022-08-21T05:12:40;20.30;99.90
18339;DHT22;9295;44.484;11.240;2022-08-21T05:15:12;20.30;99.90
18339;DHT22;9295;44.484;11.240;2022-08-21T05:17:41;20.40;99.90
18339;DHT22;9295;44.484;11.240;2022-08-21T05:20:18;20.50;99.90
18339;DHT22;9295;44.484;11.240;2022-08-21T05:22:47;20.60;99.90
18339;DHT22;9295;44.484;11.240;2022-08-21T05:25:17;20.60;99.90
18339;DHT22;9295;44.484;11.240;2022-08-21T05:27:51;20.70;99.90
18339;DHT22;9295;44.484;11.240;2022-08-21T05:30:20;20.80;99.90
18339;DHT22;9295;44.484;11.240;2022-08-21T05:32:49;21.00;99.90
18339;DHT22;9295;44.484;11.240;2022-08-21T05:35:17;21.20;99.90
18339;DHT22;9295;44.484;11.240;2022-08-21T05:37:46;21.40;99.90
18339;DHT22;9295;44.484;11.240;2022-08-21T05:40:14;21.90;99.90
18339;DHT22;9295;44.484;11.240;2022-08-21T05:42:50;22.70;99.90
18339;DHT22;9295;44.484;11.240;2022-08-21T05:45:21;23.60;99.90
18339;DHT22;9295;44.484;11.240;2022-08-21T05:48:10;24.50;99.90
18339;DHT22;9295;44.484;11.240;2022-08-21T05:50:40;25.20;99.90
18339;DHT22;9295;44.484;11.240;2022-08-21T05:53:10;26.10;99.90
18339;DHT22;9295;44.484;11.240;2022-08-21T05:55:39;27.10;99.90
18339;DHT22;9295;44.484;11.240;2022-08-21T05:58:15;27.90;99.90
18339;DHT22;9295;44.484;11.240;2022-08-21T06:00:47;28.60;99.90
18339;DHT22;9295;44.484;11.240;2022-08-21T06:03:18;29.20;99.90
18339;DHT22;9295;44.484;11.240;2022-08-21T06:05:47;29.20;99.90
18339;DHT22;9295;44.484;11.240;2022-08-21T06:08:17;29.40;99.90
18339;DHT22;9295;44.484;11.240;2022-08-21T06:10:47;29.90;99.90
18339;DHT22;9295;44.484;11.240;2022-08-21T06:13:19;30.30;99.90
18339;DHT22;9295;44.484;11.240;2022-08-21T06:15:48;30.30;99.90
18339;DHT22;9295;44.484;11.240;2022-08-21T06:18:17;30.80;99.90
18339;DHT22;9295;44.484;11.240;2022-08-21T06:20:45;31.00;99.90
18339;DHT22;9295;44.484;11.240;2022-08-21T06:23:14;31.70;99.90
18339;DHT22;9295;44.484;11.240;2022-08-21T06:25:42;32.20;99.90
18339;DHT22;9295;44.484;11.240;2022-08-21T06:28:11;32.50;99.90
18339;DHT22;9295;44.484;11.240;2022-08-21T06:30:41;32.80;99.90
18339;DHT22;9295;44.484;11.240;2022-08-21T06:33:09;33.10;98.50
18339;DHT22;9295;44.484;11.240;2022-08-21T06:35:38;33.40;97.60
18339;DHT22;9295;44.484;11.240;2022-08-21T06:38:08;33.40;96.20
18339;DHT22;9295;44.484;11.240;2022-08-21T06:40:36;33.30;96.10
18339;DHT22;9295;44.484;11.240;2022-08-21T06:43:16;33.40;96.70
18339;DHT22;9295;44.484;11.240;2022-08-21T06:45:46;33.60;95.80
18339;DHT22;9295;44.484;11.240;2022-08-21T06:48:14;33.70;95.30
18339;DHT22;9295;44.484;11.240;2022-08-21T06:50:48;33.80;95.50
18339;DHT22;9295;44.484;11.240;2022-08-21T06:53:19;34.10;95.10
18339;DHT22;9295;44.484;11.240;2022-08-21T06:55:48;34.10;94.40
18339;DHT22;9295;44.484;11.240;2022-08-21T06:58:16;34.10;94.40
18339;DHT22;9295;44.484;11.240;2022-08-21T07:00:49;34.40;94.20
18339;DHT22;9295;44.484;11.240;2022-08-21T07:03:28;34.50;95.00
18339;DHT22;9295;44.484;11.240;2022-08-21T07:05:56;34.70;93.70
18339;DHT22;9295;44.484;11.240;2022-08-21T07:08:26;34.60;93.90
18339;DHT22;9295;44.484;11.240;2022-08-21T07:10:56;34.50;94.90
18339;DHT22;9295;44.484;11.240;2022-08-21T07:13:25;34.70;94.60
18339;DHT22;9295;44.484;11.240;2022-08-21T07:15:55;34.70;94.50
18339;DHT22;9295;44.484;11.240;2022-08-21T07:18:30;34.90;94.90
18339;DHT22;9295;44.484;11.240;2022-08-21T07:21:00;35.00;94.50
18339;DHT22;9295;44.484;11.240;2022-08-21T07:23:34;35.10;94.50
18339;DHT22;9295;44.484;11.240;2022-08-21T07:26:03;35.40;92.70
18339;DHT22;9295;44.484;11.240;2022-08-21T07:28:32;35.70;92.10
18339;DHT22;9295;44.484;11.240;2022-08-21T07:31:02;35.90;91.30
18339;DHT22;9295;44.484;11.240;2022-08-21T07:33:33;36.00;90.50
18339;DHT22;9295;44.484;11.240;2022-08-21T07:36:02;35.80;90.30
18339;DHT22;9295;44.484;11.240;2022-08-21T07:38:31;36.00;88.90
18339;DHT22;9295;44.484;11.240;2022-08-21T07:41:01;36.10;88.10
18339;DHT22;9295;44.484;11.240;2022-08-21T07:43:30;36.50;85.30
18339;DHT22;9295;44.484;11.240;2022-08-21T07:45:59;36.70;85.10
18339;DHT22;9295;44.484;11.240;2022-08-21T07:48:31;37.00;83.40
18339;DHT22;9295;44.484;11.240;2022-08-21T07:51:04;37.20;82.50
18339;DHT22;9295;44.484;11.240;2022-08-21T07:53:34;37.40;80.10
18339;DHT22;9295;44.484;11.240;2022-08-21T07:56:03;37.40;78.80
18339;DHT22;9295;44.484;11.240;2022-08-21T07:58:34;37.30;76.70
18339;DHT22;9295;44.484;11.240;2022-08-21T08:01:03;37.50;74.90
18339;DHT22;9295;44.484;11.240;2022-08-21T08:03:34;37.40;74.20
18339;DHT22;9295;44.484;11.240;2022-08-21T08:06:03;37.50;72.00
18339;DHT22;9295;44.484;11.240;2022-08-21T08:08:32;37.60;70.00
18339;DHT22;9295;44.484;11.240;2022-08-21T08:11:01;37.40;69.50
18339;DHT22;9295;44.484;11.240;2022-08-21T08:13:29;37.50;68.60
18339;DHT22;9295;44.484;11.240;2022-08-21T08:15:58;37.30;68.40
18339;DHT22;9295;44.484;11.240;2022-08-21T08:18:26;37.10;68.90
18339;DHT22;9295;44.484;11.240;2022-08-21T08:20:58;36.70;69.00
18339;DHT22;9295;44.484;11.240;2022-08-21T08:23:27;36.30;70.00
18339;DHT22;9295;44.484;11.240;2022-08-21T08:25:57;35.80;70.80
18339;DHT22;9295;44.484;11.240;2022-08-21T08:28:25;35.60;71.80
18339;DHT22;9295;44.484;11.240;2022-08-21T08:30:54;35.40;71.90
18339;DHT22;9295;44.484;11.240;2022-08-21T08:33:23;35.10;71.40
18339;DHT22;9295;44.484;11.240;2022-08-21T08:35:52;34.80;73.10
18339;DHT22;9295;44.484;11.240;2022-08-21T08:38:24;34.50;73.00
18339;DHT22;9295;44.484;11.240;2022-08-21T08:40:58;34.20;74.90
18339;DHT22;9295;44.484;11.240;2022-08-21T08:43:32;34.10;75.80
18339;DHT22;9295;44.484;11.240;2022-08-21T08:46:06;33.80;76.40
18339;DHT22;9295;44.484;11.240;2022-08-21T08:48:45;33.80;76.70
18339;DHT22;9295;44.484;11.240;2022-08-21T08:51:24;33.80;77.10
18339;DHT22;9295;44.484;11.240;2022-08-21T08:54:02;33.80;76.90
18339;DHT22;9295;44.484;11.240;2022-08-21T08:56:32;33.70;76.70
18339;DHT22;9295;44.484;11.240;2022-08-21T08:59:05;33.50;78.50
18339;DHT22;9295;44.484;11.240;2022-08-21T09:01:35;33.30;77.90
18339;DHT22;9295;44.484;11.240;2022-08-21T09:04:06;33.20;78.50
18339;DHT22;9295;44.484;11.240;2022-08-21T09:06:45;33.10;79.10
18339;DHT22;9295;44.484;11.240;2022-08-21T09:09:25;32.90;78.20
18339;DHT22;9295;44.484;11.240;2022-08-21T09:12:02;32.90;78.70
18339;DHT22;9295;44.484;11.240;2022-08-21T09:14:47;32.60;77.70
18339;DHT22;9295;44.484;11.240;2022-08-21T09:17:30;32.20;77.80
18339;DHT22;9295;44.484;11.240;2022-08-21T09:20:11;31.90;78.70
18339;DHT22;9295;44.484;11.240;2022-08-21T09:22:51;31.60;79.80
18339;DHT22;9295;44.484;11.240;2022-08-21T09:25:30;31.80;82.10
18339;DHT22;9295;44.484;11.240;2022-08-21T09:27:59;32.10;82.40
18339;DHT22;9295;44.484;11.240;2022-08-21T09:30:32;32.10;80.50
18339;DHT22;9295;44.484;11.240;2022-08-21T09:33:01;32.00;80.80
18339;DHT22;9295;44.484;11.240;2022-08-21T09:35:29;32.10;82.00
18339;DHT22;9295;44.484;11.240;2022-08-21T09:38:02;32.10;81.50
18339;DHT22;9295;44.484;11.240;2022-08-21T09:40:39;31.90;81.20
18339;DHT22;9295;44.484;11.240;2022-08-21T09:43:17;31.70;82.80
18339;DHT22;9295;44.484;11.240;2022-08-21T09:46:02;31.80;83.00
18339;DHT22;9295;44.484;11.240;2022-08-21T09:48:40;31.90;82.70
18339;DHT22;9295;44.484;11.240;2022-08-21T09:51:12;31.90;82.20
18339;DHT22;9295;44.484;11.240;2022-08-21T09:53:45;31.80;82.80
18339;DHT22;9295;44.484;11.240;2022-08-21T09:56:25;31.80;82.80
18339;DHT22;9295;44.484;11.240;2022-08-21T09:59:20;31.90;82.30
18339;DHT22;9295;44.484;11.240;2022-08-21T10:01:53;31.90;83.10
18339;DHT22;9295;44.484;11.240;2022-08-21T10:04:27;32.00;83.00
18339;DHT22;9295;44.484;11.240;2022-08-21T10:07:06;32.00;82.30
18339;DHT22;9295;44.484;11.240;2022-08-21T10:09:35;31.90;81.20
18339;DHT22;9295;44.484;11.240;2022-08-21T10:12:14;31.70;81.40
18339;DHT22;9295;44.484;11.240;2022-08-21T10:14:50;31.30;82.40
18339;DHT22;9295;44.484;11.240;2022-08-21T10:17:29;31.10;84.10
18339;DHT22;9295;44.484;11.240;2022-08-21T10:20:04;31.20;85.90
18339;DHT22;9295;44.484;11.240;2022-08-21T10:22:44;31.20;86.50
18339;DHT22;9295;44.484;11.240;2022-08-21T10:25:19;31.00;88.40
18339;DHT22;9295;44.484;11.240;2022-08-21T10:27:57;30.60;88.60
18339;DHT22;9295;44.484;11.240;2022-08-21T10:30:36;30.60;89.30
18339;DHT22;9295;44.484;11.240;2022-08-21T10:33:16;30.50;87.00
18339;DHT22;9295;44.484;11.240;2022-08-21T10:35:54;30.50;88.70
18339;DHT22;9295;44.484;11.240;2022-08-21T10:38:57;30.30;89.40
18339;DHT22;9295;44.484;11.240;2022-08-21T10:44:47;30.40;89.30
18339;DHT22;9295;44.484;11.240;2022-08-21T10:47:26;30.40;89.10
18339;DHT22;9295;44.484;11.240;2022-08-21T10:50:06;30.40;89.70
18339;DHT22;9295;44.484;11.240;2022-08-21T10:53:03;30.30;90.20
18339;DHT22;9295;44.484;11.240;2022-08-21T10:55:36;30.50;90.40
18339;DHT22;9295;44.484;11.240;2022-08-21T10:58:11;30.50;90.50
18339;DHT22;9295;44.484;11.240;2022-08-21T11:00:45;30.30;90.50
18339;DHT22;9295;44.484;11.240;2022-08-21T11:03:16;30.30;90.10
18339;DHT22;9295;44.484;11.240;2022-08-21T11:05:50;30.30;90.20
18339;DHT22;9295;44.484;11.240;2022-08-21T11:08:23;30.10;90.20
18339;DHT22;9295;44.484;11.240;2022-08-21T11:10:59;29.90;90.30
18339;DHT22;9295;44.484;11.240;2022-08-21T11:13:37;30.10;89.90
18339;DHT22;9295;44.484;11.240;2022-08-21T11:16:13;30.30;89.70
18339;DHT22;9295;44.484;11.240;2022-08-21T11:18:49;30.60;88.60
18339;DHT22;9295;44.484;11.240;2022-08-21T11:21:30;30.80;87.80
18339;DHT22;9295;44.484;11.240;2022-08-21T11:24:06;31.00;87.00
18339;DHT22;9295;44.484;11.240;2022-08-21T11:26:41;31.10;86.80
18339;DHT22;9295;44.484;11.240;2022-08-21T11:29:15;31.20;84.40
18339;DHT22;9295;44.484;11.240;2022-08-21T11:31:56;31.00;82.60
18339;DHT22;9295;44.484;11.240;2022-08-21T11:34:41;30.90;83.00
18339;DHT22;9295;44.484;11.240;2022-08-21T11:37:20;30.90;80.90
18339;DHT22;9295;44.484;11.240;2022-08-21T11:39:56;30.90;81.10
18339;DHT22;9295;44.484;11.240;2022-08-21T11:42:32;31.00;80.20
18339;DHT22;9295;44.484;11.240;2022-08-21T11:45:14;31.10;78.70
18339;DHT22;9295;44.484;11.240;2022-08-21T11:47:54;31.20;77.40
18339;DHT22;9295;44.484;11.240;2022-08-21T11:50:27;31.20;79.20
18339;DHT22;9295;44.484;11.240;2022-08-21T11:53:07;31.30;79.10
18339;DHT22;9295;44.484;11.240;2022-08-21T11:55:43;31.30;77.90
18339;DHT22;9295;44.484;11.240;2022-08-21T11:58:17;31.40;77.70
18339;DHT22;9295;44.484;11.240;2022-08-21T12:00:52;31.40;78.90
18339;DHT22;9295;44.484;11.240;2022-08-21T12:03:30;31.50;80.40
18339;DHT22;9295;44.484;11.240;2022-08-21T12:06:01;31.60;79.90
18339;DHT22;9295;44.484;11.240;2022-08-21T12:08:31;31.60;80.10
18339;DHT22;9295;44.484;11.240;2022-08-21T12:11:03;31.50;80.00
18339;DHT22;9295;44.484;11.240;2022-08-21T12:13:38;31.50;80.20
18339;DHT22;9295;44.484;11.240;2022-08-21T12:16:11;31.40;79.60
18339;DHT22;9295;44.484;11.240;2022-08-21T12:18:43;31.40;79.20
18339;DHT22;9295;44.484;11.240;2022-08-21T12:21:21;31.40;79.20
18339;DHT22;9295;44.484;11.240;2022-08-21T12:24:01;31.40;78.30
18339;DHT22;9295;44.484;11.240;2022-08-21T12:26:32;31.50;78.40
18339;DHT22;9295;44.484;11.240;2022-08-21T12:29:16;31.40;78.40
18339;DHT22;9295;44.484;11.240;2022-08-21T12:31:54;31.50;78.50
18339;DHT22;9295;44.484;11.240;2022-08-21T12:34:30;31.50;78.50
18339;DHT22;9295;44.484;11.240;2022-08-21T12:37:04;31.50;79.70
18339;DHT22;9295;44.484;11.240;2022-08-21T12:39:36;31.50;78.30
18339;DHT22;9295;44.484;11.240;2022-08-21T12:42:15;31.50;79.20
18339;DHT22;9295;44.484;11.240;2022-08-21T12:44:53;31.50;79.50
18339;DHT22;9295;44.484;11.240;2022-08-21T12:47:27;31.60;79.50
18339;DHT22;9295;44.484;11.240;2022-08-21T12:50:03;31.70;79.70
18339;DHT22;9295;44.484;11.240;2022-08-21T12:52:39;31.70;78.90
18339;DHT22;9295;44.484;11.240;2022-08-21T12:55:12;31.70;78.90
18339;DHT22;9295;44.484;11.240;2022-08-21T12:57:42;31.70;79.70
18339;DHT22;9295;44.484;11.240;2022-08-21T13:00:13;31.90;79.40
18339;DHT22;9295;44.484;11.240;2022-08-21T13:02:46;31.80;79.20
18339;DHT22;9295;44.484;11.240;2022-08-21T13:05:22;31.80;79.90
18339;DHT22;9295;44.484;11.240;2022-08-21T13:07:52;31.80;79.00
18339;DHT22;9295;44.484;11.240;2022-08-21T13:10:23;31.80;79.20
18339;DHT22;9295;44.484;11.240;2022-08-21T13:12:54;31.90;79.20
18339;DHT22;9295;44.484;11.240;2022-08-21T13:15:26;32.00;78.90
18339;DHT22;9295;44.484;11.240;2022-08-21T13:18:01;32.00;77.90
18339;DHT22;9295;44.484;11.240;2022-08-21T13:20:33;31.80;78.20
18339;DHT22;9295;44.484;11.240;2022-08-21T13:23:18;31.80;78.60
18339;DHT22;9295;44.484;11.240;2022-08-21T13:25:47;31.80;78.50
18339;DHT22;9295;44.484;11.240;2022-08-21T13:28:16;31.90;78.70
18339;DHT22;9295;44.484;11.240;2022-08-21T13:30:46;31.90;78.30
18339;DHT22;9295;44.484;11.240;2022-08-21T13:33:19;31.90;78.10
18339;DHT22;9295;44.484;11.240;2022-08-21T13:35:57;31.80;78.00
18339;DHT22;9295;44.484;11.240;2022-08-21T13:38:32;31.80;78.00
18339;DHT22;9295;44.484;11.240;2022-08-21T13:41:03;31.80;77.80
18339;DHT22;9295;44.484;11.240;2022-08-21T13:43:34;31.80;77.60
18339;DHT22;9295;44.484;11.240;2022-08-21T13:46:09;31.90;78.10
18339;DHT22;9295;44.484;11.240;2022-08-21T13:48:38;32.00;77.70
18339;DHT22;9295;44.484;11.240;2022-08-21T13:51:08;31.90;78.00
18339;DHT22;9295;44.484;11.240;2022-08-21T13:53:45;31.80;77.90
18339;DHT22;9295;44.484;11.240;2022-08-21T13:56:25;31.90;77.90
18339;DHT22;9295;44.484;11.240;2022-08-21T13:58:57;31.90;77.50
18339;DHT22;9295;44.484;11.240;2022-08-21T14:01:29;32.00;76.80
18339;DHT22;9295;44.484;11.240;2022-08-21T14:04:03;31.80;76.40
18339;DHT22;9295;44.484;11.240;2022-08-21T14:06:36;31.80;76.40
18339;DHT22;9295;44.484;11.240;2022-08-21T14:09:09;31.80;75.60
18339;DHT22;9295;44.484;11.240;2022-08-21T14:11:39;31.80;75.80
18339;DHT22;9295;44.484;11.240;2022-08-21T14:14:18;31.90;76.80
18339;DHT22;9295;44.484;11.240;2022-08-21T14:16:55;32.00;76.60
18339;DHT22;9295;44.484;11.240;2022-08-21T14:19:26;32.00;76.80
18339;DHT22;9295;44.484;11.240;2022-08-21T14:21:56;32.10;76.90
18339;DHT22;9295;44.484;11.240;2022-08-21T14:24:27;32.10;76.40
18339;DHT22;9295;44.484;11.240;2022-08-21T14:27:01;32.10;77.70
18339;DHT22;9295;44.484;11.240;2022-08-21T14:29:36;32.10;76.60
18339;DHT22;9295;44.484;11.240;2022-08-21T14:32:14;32.10;74.90
18339;DHT22;9295;44.484;11.240;2022-08-21T14:34:51;32.00;75.40
18339;DHT22;9295;44.484;11.240;2022-08-21T14:37:23;32.00;75.40
18339;DHT22;9295;44.484;11.240;2022-08-21T14:39:52;32.00;75.40
18339;DHT22;9295;44.484;11.240;2022-08-21T14:42:21;32.20;75.40
18339;DHT22;9295;44.484;11.240;2022-08-21T14:44:51;32.10;74.60
18339;DHT22;9295;44.484;11.240;2022-08-21T14:47:21;32.10;74.50
18339;DHT22;9295;44.484;11.240;2022-08-21T14:49:50;32.10;74.40
18339;DHT22;9295;44.484;11.240;2022-08-21T14:52:22;32.00;75.00
18339;DHT22;9295;44.484;11.240;2022-08-21T14:54:51;32.10;75.10
18339;DHT22;9295;44.484;11.240;2022-08-21T14:57:19;32.00;74.60
18339;DHT22;9295;44.484;11.240;2022-08-21T14:59:48;32.10;74.60
18339;DHT22;9295;44.484;11.240;2022-08-21T15:02:18;32.10;74.10
18339;DHT22;9295;44.484;11.240;2022-08-21T15:04:46;32.10;74.10
18339;DHT22;9295;44.484;11.240;2022-08-21T15:07:16;32.10;74.40
18339;DHT22;9295;44.484;11.240;2022-08-21T15:09:46;32.10;76.50
18339;DHT22;9295;44.484;11.240;2022-08-21T15:12:14;32.00;77.10
18339;DHT22;9295;44.484;11.240;2022-08-21T15:14:45;32.00;77.70
18339;DHT22;9295;44.484;11.240;2022-08-21T15:17:14;32.00;77.80
18339;DHT22;9295;44.484;11.240;2022-08-21T15:19:43;32.00;77.70
18339;DHT22;9295;44.484;11.240;2022-08-21T15:22:11;32.00;77.80
18339;DHT22;9295;44.484;11.240;2022-08-21T15:24:55;32.00;78.40
18339;DHT22;9295;44.484;11.240;2022-08-21T15:27:23;32.00;76.70
18339;DHT22;9295;44.484;11.240;2022-08-21T15:29:52;32.00;76.40
18339;DHT22;9295;44.484;11.240;2022-08-21T15:32:26;32.00;76.90
18339;DHT22;9295;44.484;11.240;2022-08-21T15:34:59;32.00;76.30
18339;DHT22;9295;44.484;11.240;2022-08-21T15:37:28;32.00;75.30
18339;DHT22;9295;44.484;11.240;2022-08-21T15:40:05;32.00;75.50
18339;DHT22;9295;44.484;11.240;2022-08-21T15:42:34;32.00;75.30
18339;DHT22;9295;44.484;11.240;2022-08-21T15:45:03;32.00;75.50
18339;DHT22;9295;44.484;11.240;2022-08-21T15:47:34;32.00;75.80
18339;DHT22;9295;44.484;11.240;2022-08-21T15:50:04;31.90;76.20
18339;DHT22;9295;44.484;11.240;2022-08-21T15:52:37;31.80;76.60
18339;DHT22;9295;44.484;11.240;2022-08-21T15:55:08;31.70;76.90
18339;DHT22;9295;44.484;11.240;2022-08-21T15:57:38;31.60;77.20
18339;DHT22;9295;44.484;11.240;2022-08-21T16:00:24;31.60;77.50
18339;DHT22;9295;44.484;11.240;2022-08-21T16:02:56;31.60;78.80
18339;DHT22;9295;44.484;11.240;2022-08-21T16:05:25;31.70;78.30